sensor_id;sensor_type;location;lat;lon;timestamp;temperature;humidity
63260;DHT22;49390;51.380;0.098;2022-08-01T00:01:16;20.60;99.90
63260;DHT22;49390;51.380;0.098;2022-08-01T00:03:46;20.70;99.90
63260;DHT22;49390;51.380;0.098;2022-08-01T00:06:14;20.70;99.90
63260;DHT22;49390;51.380;0.098;2022-08-01T00:08:42;20.70;99.90
63260;DHT22;49390;51.380;0.098;2022-08-01T00:11:09;20.70;99.90
63260;DHT22;49390;51.380;0.098;2022-08-01T00:13:38;20.50;99.90
63260;DHT22;49390;51.380;0.098;2022-08-01T00:16:06;20.50;99.90
63260;DHT22;49390;51.380;0.098;2022-08-01T00:18:34;20.40;99.90
63260;DHT22;49390;51.380;0.098;2022-08-01T00:21:04;20.40;99.90
63260;DHT22;49390;51.380;0.098;2022-08-01T00:23:32;20.30;99.90
63260;DHT22;49390;51.380;0.098;2022-08-01T00:26:00;20.30;99.90
63260;DHT22;49390;51.380;0.098;2022-08-01T00:28:28;20.20;99.90
63260;DHT22;49390;51.380;0.098;2022-08-01T00:30:56;20.30;99.90
63260;DHT22;49390;51.380;0.098;2022-08-01T00:33:24;20.30;99.90
63260;DHT22;49390;51.380;0.098;2022-08-01T00:35:53;20.30;99.90
63260;DHT22;49390;51.380;0.098;2022-08-01T00:38:21;20.30;99.90
63260;DHT22;49390;51.380;0.098;2022-08-01T00:40:49;20.30;99.90
63260;DHT22;49390;51.380;0.098;2022-08-01T00:43:17;20.20;99.90
63260;DHT22;49390;51.380;0.098;2022-08-01T00:45:45;20.10;99.90
63260;DHT22;49390;51.380;0.098;2022-08-01T00:48:13;20.10;99.90
63260;DHT22;49390;51.380;0.098;2022-08-01T00:50:42;20.00;99.90
63260;DHT22;49390;51.380;0.098;2022-08-01T00:53:12;20.00;99.90
63260;DHT22;49390;51.380;0.098;2022-08-01T00:55:46;20.00;99.90
63260;DHT22;49390;51.380;0.098;2022-08-01T00:58:15;20.00;99.90
63260;DHT22;49390;51.380;0.098;2022-08-01T01:00:44;19.90;99.90
63260;DHT22;49390;51.380;0.098;2022-08-01T01:03:23;19.90;99.90
63260;DHT22;49390;51.380;0.098;2022-08-01T01:06:33;19.90;99.90
63260;DHT22;49390;51.380;0.098;2022-08-01T01:17:57;19.90;99.90
63260;DHT22;49390;51.380;0.098;2022-08-01T01:20:31;19.90;99.90
63260;DHT22;49390;51.380;0.098;2022-08-01T01:28:57;19.80;99.90
63260;DHT22;49390;51.380;0.098;2022-08-01T01:31:28;19.80;99.90
63260;DHT22;49390;51.380;0.098;2022-08-01T01:34:00;19.80;99.90
63260;DHT22;49390;51.380;0.098;2022-08-01T01:36:30;19.90;99.90
63260;DHT22;49390;51.380;0.098;2022-08-01T01:39:00;19.90;99.90
63260;DHT22;49390;51.380;0.098;2022-08-01T01:41:29;19.80;99.90
63260;DHT22;49390;51.380;0.098;2022-08-01T01:44:00;19.80;99.90
63260;DHT22;49390;51.380;0.098;2022-08-01T01:46:31;19.80;99.90
63260;DHT22;49390;51.380;0.098;2022-08-01T01:49:01;19.80;99.90
63260;DHT22;49390;51.380;0.098;2022-08-01T01:51:31;19.90;99.90
63260;DHT22;49390;51.380;0.098;2022-08-01T01:54:01;19.80;99.90
63260;DHT22;49390;51.380;0.098;2022-08-01T01:56:30;19.80;99.90
63260;DHT22;49390;51.380;0.098;2022-08-01T01:59:01;19.80;99.90
63260;DHT22;49390;51.380;0.098;2022-08-01T02:01:32;19.80;99.90
63260;DHT22;49390;51.380;0.098;2022-08-01T02:04:21;19.80;99.90
63260;DHT22;49390;51.380;0.098;2022-08-01T02:06:53;19.70;99.90
63260;DHT22;49390;51.380;0.098;2022-08-01T02:09:23;19.70;99.90
63260;DHT22;49390;51.380;0.098;2022-08-01T02:11:53;19.60;99.90
63260;DHT22;49390;51.380;0.098;2022-08-01T02:14:35;19.60;99.90
63260;DHT22;49390;51.380;0.098;2022-08-01T02:17:04;19.60;99.90
63260;DHT22;49390;51.380;0.098;2022-08-01T02:19:33;19.50;99.90
63260;DHT22;49390;51.380;0.098;2022-08-01T02:22:31;19.50;99.90
63260;DHT22;49390;51.380;0.098;2022-08-01T02:25:17;19.50;99.90
63260;DHT22;49390;51.380;0.098;2022-08-01T02:28:01;19.50;99.90
63260;DHT22;49390;51.380;0.098;2022-08-01T02:30:36;19.40;99.90
63260;DHT22;49390;51.380;0.098;2022-08-01T02:33:19;19.40;99.90
63260;DHT22;49390;51.380;0.098;2022-08-01T02:35:56;19.40;99.90
63260;DHT22;49390;51.380;0.098;2022-08-01T02:38:48;19.30;99.90
63260;DHT22;49390;51.380;0.098;2022-08-01T02:41:19;19.40;99.90
63260;DHT22;49390;51.380;0.098;2022-08-01T02:43:53;19.30;99.90
63260;DHT22;49390;51.380;0.098;2022-08-01T02:46:29;19.30;99.90
63260;DHT22;49390;51.380;0.098;2022-08-01T02:49:01;19.30;99.90
63260;DHT22;49390;51.380;0.098;2022-08-01T02:51:31;19.30;99.90
63260;DHT22;49390;51.380;0.098;2022-08-01T02:54:02;19.30;99.90
63260;DHT22;49390;51.380;0.098;2022-08-01T02:56:32;19.20;99.90
63260;DHT22;49390;51.380;0.098;2022-08-01T02:59:07;19.20;99.90
63260;DHT22;49390;51.380;0.098;2022-08-01T03:01:35;19.20;99.90
63260;DHT22;49390;51.380;0.098;2022-08-01T03:04:05;19.20;99.90
63260;DHT22;49390;51.380;0.098;2022-08-01T03:06:34;19.10;99.90
63260;DHT22;49390;51.380;0.098;2022-08-01T03:09:04;19.10;99.90
63260;DHT22;49390;51.380;0.098;2022-08-01T03:11:36;19.00;99.90
63260;DHT22;49390;51.380;0.098;2022-08-01T03:14:07;18.90;99.90
63260;DHT22;49390;51.380;0.098;2022-08-01T03:16:37;18.90;99.90
63260;DHT22;49390;51.380;0.098;2022-08-01T03:19:07;18.90;99.90
63260;DHT22;49390;51.380;0.098;2022-08-01T03:21:37;18.80;99.90
63260;DHT22;49390;51.380;0.098;2022-08-01T03:24:07;18.80;99.90
63260;DHT22;49390;51.380;0.098;2022-08-01T03:26:38;18.60;99.90
63260;DHT22;49390;51.380;0.098;2022-08-01T03:29:17;18.60;99.90
63260;DHT22;49390;51.380;0.098;2022-08-01T03:31:46;18.50;99.90
63260;DHT22;49390;51.380;0.098;2022-08-01T03:34:16;18.40;99.90
63260;DHT22;49390;51.380;0.098;2022-08-01T03:39:17;18.30;99.90
63260;DHT22;49390;51.380;0.098;2022-08-01T03:41:51;18.20;99.90
63260;DHT22;49390;51.380;0.098;2022-08-01T03:44:27;18.10;99.90
63260;DHT22;49390;51.380;0.098;2022-08-01T03:47:00;18.10;99.90
63260;DHT22;49390;51.380;0.098;2022-08-01T03:49:32;18.10;99.90
63260;DHT22;49390;51.380;0.098;2022-08-01T03:52:07;18.10;99.90
63260;DHT22;49390;51.380;0.098;2022-08-01T03:54:41;18.10;99.90
63260;DHT22;49390;51.380;0.098;2022-08-01T03:57:11;18.10;99.90
63260;DHT22;49390;51.380;0.098;2022-08-01T03:59:59;18.10;99.90
63260;DHT22;49390;51.380;0.098;2022-08-01T04:02:39;18.10;99.90
63260;DHT22;49390;51.380;0.098;2022-08-01T04:05:08;18.00;99.90
63260;DHT22;49390;51.380;0.098;2022-08-01T04:07:36;18.10;99.90
63260;DHT22;49390;51.380;0.098;2022-08-01T04:10:06;18.00;99.90
63260;DHT22;49390;51.380;0.098;2022-08-01T04:12:35;18.00;99.90
63260;DHT22;49390;51.380;0.098;2022-08-01T04:15:05;18.10;99.90
63260;DHT22;49390;51.380;0.098;2022-08-01T04:17:35;18.00;99.90
63260;DHT22;49390;51.380;0.098;2022-08-01T04:20:05;18.00;99.90
63260;DHT22;49390;51.380;0.098;2022-08-01T04:23:20;18.10;99.90
63260;DHT22;49390;51.380;0.098;2022-08-01T04:25:52;18.10;99.90
63260;DHT22;49390;51.380;0.098;2022-08-01T04:28:21;18.10;99.90
63260;DHT22;49390;51.380;0.098;2022-08-01T04:30:53;18.10;99.90
63260;DHT22;49390;51.380;0.098;2022-08-01T04:33:29;18.10;99.90
63260;DHT22;49390;51.380;0.098;2022-08-01T04:36:00;18.10;99.90
63260;DHT22;49390;51.380;0.098;2022-08-01T04:38:34;18.10;99.90
63260;DHT22;49390;51.380;0.098;2022-08-01T04:41:06;18.10;99.90
63260;DHT22;49390;51.380;0.098;2022-08-01T04:43:39;18.10;99.90
63260;DHT22;49390;51.380;0.098;2022-08-01T04:46:11;18.10;99.90
63260;DHT22;49390;51.380;0.098;2022-08-01T04:48:43;18.20;99.90
63260;DHT22;49390;51.380;0.098;2022-08-01T04:51:16;18.20;99.90
63260;DHT22;49390;51.380;0.098;2022-08-01T04:53:45;18.30;99.90
63260;DHT22;49390;51.380;0.098;2022-08-01T04:56:13;18.30;99.90
63260;DHT22;49390;51.380;0.098;2022-08-01T04:58:42;18.30;99.90
63260;DHT22;49390;51.380;0.098;2022-08-01T05:01:11;18.20;99.90
63260;DHT22;49390;51.380;0.098;2022-08-01T05:03:39;18.20;99.90
63260;DHT22;49390;51.380;0.098;2022-08-01T05:06:07;18.20;99.90
63260;DHT22;49390;51.380;0.098;2022-08-01T05:08:35;18.10;99.90
63260;DHT22;49390;51.380;0.098;2022-08-01T05:11:04;18.10;99.90
63260;DHT22;49390;51.380;0.098;2022-08-01T05:13:32;18.20;99.90
63260;DHT22;49390;51.380;0.098;2022-08-01T05:16:00;18.20;99.90
63260;DHT22;49390;51.380;0.098;2022-08-01T05:18:32;18.30;99.90
63260;DHT22;49390;51.380;0.098;2022-08-01T05:21:01;18.30;99.90
63260;DHT22;49390;51.380;0.098;2022-08-01T05:23:30;18.40;99.90
63260;DHT22;49390;51.380;0.098;2022-08-01T05:26:10;18.40;99.90
63260;DHT22;49390;51.380;0.098;2022-08-01T05:28:41;18.50;99.90
63260;DHT22;49390;51.380;0.098;2022-08-01T05:31:09;18.60;99.90
63260;DHT22;49390;51.380;0.098;2022-08-01T05:33:37;18.60;99.90
63260;DHT22;49390;51.380;0.098;2022-08-01T05:36:05;18.70;99.90
63260;DHT22;49390;51.380;0.098;2022-08-01T05:38:33;18.70;99.90
63260;DHT22;49390;51.380;0.098;2022-08-01T05:41:02;18.70;99.90
63260;DHT22;49390;51.380;0.098;2022-08-01T05:43:31;18.70;99.90
63260;DHT22;49390;51.380;0.098;2022-08-01T05:46:00;18.80;99.90
63260;DHT22;49390;51.380;0.098;2022-08-01T05:50:54;18.90;99.90
63260;DHT22;49390;51.380;0.098;2022-08-01T05:53:26;18.90;99.90
63260;DHT22;49390;51.380;0.098;2022-08-01T05:55:54;18.90;99.90
63260;DHT22;49390;51.380;0.098;2022-08-01T05:58:23;18.90;99.90
63260;DHT22;49390;51.380;0.098;2022-08-01T06:00:51;18.80;99.90
63260;DHT22;49390;51.380;0.098;2022-08-01T06:03:21;18.80;99.90
63260;DHT22;49390;51.380;0.098;2022-08-01T06:05:50;18.90;99.90
63260;DHT22;49390;51.380;0.098;2022-08-01T06:08:19;18.90;99.90
63260;DHT22;49390;51.380;0.098;2022-08-01T06:10:47;18.90;99.90
63260;DHT22;49390;51.380;0.098;2022-08-01T06:13:15;19.00;99.90
63260;DHT22;49390;51.380;0.098;2022-08-01T06:15:44;19.00;99.90
63260;DHT22;49390;51.380;0.098;2022-08-01T06:18:12;19.00;99.90
63260;DHT22;49390;51.380;0.098;2022-08-01T06:20:41;19.10;99.90
63260;DHT22;49390;51.380;0.098;2022-08-01T06:23:09;19.20;99.90
63260;DHT22;49390;51.380;0.098;2022-08-01T06:25:59;19.30;99.90
63260;DHT22;49390;51.380;0.098;2022-08-01T06:28:27;19.30;99.90
63260;DHT22;49390;51.380;0.098;2022-08-01T06:30:55;19.40;99.90
63260;DHT22;49390;51.380;0.098;2022-08-01T06:33:23;19.50;99.90
63260;DHT22;49390;51.380;0.098;2022-08-01T06:35:51;19.50;99.90
63260;DHT22;49390;51.380;0.098;2022-08-01T06:38:19;19.60;99.90
63260;DHT22;49390;51.380;0.098;2022-08-01T06:40:47;19.50;99.90
63260;DHT22;49390;51.380;0.098;2022-08-01T06:43:15;19.50;99.90
63260;DHT22;49390;51.380;0.098;2022-08-01T06:45:43;19.50;99.90
63260;DHT22;49390;51.380;0.098;2022-08-01T06:48:14;19.50;99.90
63260;DHT22;49390;51.380;0.098;2022-08-01T06:50:43;19.50;99.90
63260;DHT22;49390;51.380;0.098;2022-08-01T06:53:11;19.50;99.90
63260;DHT22;49390;51.380;0.098;2022-08-01T06:55:40;19.50;99.90
63260;DHT22;49390;51.380;0.098;2022-08-01T06:58:09;19.70;99.90
63260;DHT22;49390;51.380;0.098;2022-08-01T07:00:37;19.70;99.90
63260;DHT22;49390;51.380;0.098;2022-08-01T07:03:05;19.70;99.90
63260;DHT22;49390;51.380;0.098;2022-08-01T07:05:33;19.80;99.90
63260;DHT22;49390;51.380;0.098;2022-08-01T07:08:01;19.80;99.90
63260;DHT22;49390;51.380;0.098;2022-08-01T07:10:30;19.80;99.90
63260;DHT22;49390;51.380;0.098;2022-08-01T07:13:01;19.80;99.90
63260;DHT22;49390;51.380;0.098;2022-08-01T07:15:29;19.80;99.90
63260;DHT22;49390;51.380;0.098;2022-08-01T07:17:56;19.90;99.90
63260;DHT22;49390;51.380;0.098;2022-08-01T07:20:26;19.90;99.90
63260;DHT22;49390;51.380;0.098;2022-08-01T07:22:56;19.90;99.90
63260;DHT22;49390;51.380;0.098;2022-08-01T07:25:24;19.90;99.90
63260;DHT22;49390;51.380;0.098;2022-08-01T07:27:52;19.90;99.90
63260;DHT22;49390;51.380;0.098;2022-08-01T07:30:20;19.90;99.90
63260;DHT22;49390;51.380;0.098;2022-08-01T07:32:50;19.90;99.90
63260;DHT22;49390;51.380;0.098;2022-08-01T07:35:19;19.90;99.90
63260;DHT22;49390;51.380;0.098;2022-08-01T07:37:47;20.00;99.90
63260;DHT22;49390;51.380;0.098;2022-08-01T07:40:19;20.00;99.90
63260;DHT22;49390;51.380;0.098;2022-08-01T07:42:50;20.10;99.90
63260;DHT22;49390;51.380;0.098;2022-08-01T07:45:17;20.10;99.90
63260;DHT22;49390;51.380;0.098;2022-08-01T07:47:46;20.20;99.90
63260;DHT22;49390;51.380;0.098;2022-08-01T07:50:14;20.20;99.90
63260;DHT22;49390;51.380;0.098;2022-08-01T07:52:43;20.30;99.90
63260;DHT22;49390;51.380;0.098;2022-08-01T07:55:12;20.30;99.90
63260;DHT22;49390;51.380;0.098;2022-08-01T07:57:43;20.30;99.90
63260;DHT22;49390;51.380;0.098;2022-08-01T08:00:12;20.30;99.90
63260;DHT22;49390;51.380;0.098;2022-08-01T08:02:40;20.40;99.90
63260;DHT22;49390;51.380;0.098;2022-08-01T08:05:08;20.40;99.90
63260;DHT22;49390;51.380;0.098;2022-08-01T08:07:42;20.50;99.90
63260;DHT22;49390;51.380;0.098;2022-08-01T08:10:10;20.60;99.90
63260;DHT22;49390;51.380;0.098;2022-08-01T08:12:40;20.70;99.90
63260;DHT22;49390;51.380;0.098;2022-08-01T08:15:10;20.70;99.90
63260;DHT22;49390;51.380;0.098;2022-08-01T08:17:39;20.70;99.90
63260;DHT22;49390;51.380;0.098;2022-08-01T08:20:09;20.80;99.90
63260;DHT22;49390;51.380;0.098;2022-08-01T08:22:37;21.00;99.90
63260;DHT22;49390;51.380;0.098;2022-08-01T08:25:06;21.20;99.90
63260;DHT22;49390;51.380;0.098;2022-08-01T08:27:36;21.20;99.90
63260;DHT22;49390;51.380;0.098;2022-08-01T08:30:07;21.30;99.90
63260;DHT22;49390;51.380;0.098;2022-08-01T08:32:36;21.30;99.90
63260;DHT22;49390;51.380;0.098;2022-08-01T08:35:05;21.40;99.90
63260;DHT22;49390;51.380;0.098;2022-08-01T08:37:35;21.50;99.90
63260;DHT22;49390;51.380;0.098;2022-08-01T08:40:14;21.50;99.90
63260;DHT22;49390;51.380;0.098;2022-08-01T08:42:44;21.60;99.90
63260;DHT22;49390;51.380;0.098;2022-08-01T08:45:13;21.60;99.90
63260;DHT22;49390;51.380;0.098;2022-08-01T08:47:41;21.60;99.90
63260;DHT22;49390;51.380;0.098;2022-08-01T08:50:12;21.60;99.90
63260;DHT22;49390;51.380;0.098;2022-08-01T08:52:40;21.60;99.90
63260;DHT22;49390;51.380;0.098;2022-08-01T08:55:10;21.70;99.90
63260;DHT22;49390;51.380;0.098;2022-08-01T08:57:40;21.70;99.90
63260;DHT22;49390;51.380;0.098;2022-08-01T09:00:13;21.90;99.90
63260;DHT22;49390;51.380;0.098;2022-08-01T09:02:47;21.90;99.90
63260;DHT22;49390;51.380;0.098;2022-08-01T09:05:16;22.00;99.90
63260;DHT22;49390;51.380;0.098;2022-08-01T09:07:50;22.00;99.90
63260;DHT22;49390;51.380;0.098;2022-08-01T09:10:19;22.00;99.90
63260;DHT22;49390;51.380;0.098;2022-08-01T09:15:46;22.50;99.90
63260;DHT22;49390;51.380;0.098;2022-08-01T09:18:48;22.80;99.90
63260;DHT22;49390;51.380;0.098;2022-08-01T09:21:21;23.30;99.90
63260;DHT22;49390;51.380;0.098;2022-08-01T09:23:53;23.60;99.90
63260;DHT22;49390;51.380;0.098;2022-08-01T09:28:13;23.70;99.90
63260;DHT22;49390;51.380;0.098;2022-08-01T09:30:42;23.80;99.90
63260;DHT22;49390;51.380;0.098;2022-08-01T09:33:10;23.80;99.90
63260;DHT22;49390;51.380;0.098;2022-08-01T09:35:56;23.70;99.90
63260;DHT22;49390;51.380;0.098;2022-08-01T09:38:25;23.50;99.90
63260;DHT22;49390;51.380;0.098;2022-08-01T09:40:59;23.40;99.90
63260;DHT22;49390;51.380;0.098;2022-08-01T09:43:29;23.30;99.90
63260;DHT22;49390;51.380;0.098;2022-08-01T09:46:04;23.40;99.90
63260;DHT22;49390;51.380;0.098;2022-08-01T09:48:32;23.50;99.90
63260;DHT22;49390;51.380;0.098;2022-08-01T09:51:01;23.50;99.90
63260;DHT22;49390;51.380;0.098;2022-08-01T09:53:47;23.40;99.90
63260;DHT22;49390;51.380;0.098;2022-08-01T09:56:22;23.50;99.90
63260;DHT22;49390;51.380;0.098;2022-08-01T09:58:58;23.70;99.90
63260;DHT22;49390;51.380;0.098;2022-08-01T10:01:42;24.00;99.90
63260;DHT22;49390;51.380;0.098;2022-08-01T10:06:44;24.40;99.90
63260;DHT22;49390;51.380;0.098;2022-08-01T10:09:14;24.50;99.90
63260;DHT22;49390;51.380;0.098;2022-08-01T10:11:43;24.60;99.90
63260;DHT22;49390;51.380;0.098;2022-08-01T10:14:12;24.70;99.90
63260;DHT22;49390;51.380;0.098;2022-08-01T10:16:46;24.70;99.90
63260;DHT22;49390;51.380;0.098;2022-08-01T10:19:24;24.60;99.90
63260;DHT22;49390;51.380;0.098;2022-08-01T10:21:56;24.60;99.90
63260;DHT22;49390;51.380;0.098;2022-08-01T10:24:29;24.60;99.90
63260;DHT22;49390;51.380;0.098;2022-08-01T10:27:06;24.50;99.90
63260;DHT22;49390;51.380;0.098;2022-08-01T10:29:55;24.50;99.90
63260;DHT22;49390;51.380;0.098;2022-08-01T10:32:37;24.40;99.90
63260;DHT22;49390;51.380;0.098;2022-08-01T10:35:07;24.50;99.90
63260;DHT22;49390;51.380;0.098;2022-08-01T10:37:43;24.60;99.90
63260;DHT22;49390;51.380;0.098;2022-08-01T10:40:20;24.70;99.90
63260;DHT22;49390;51.380;0.098;2022-08-01T10:42:58;24.90;99.90
63260;DHT22;49390;51.380;0.098;2022-08-01T10:45:26;25.00;99.90
63260;DHT22;49390;51.380;0.098;2022-08-01T10:50:37;24.80;99.90
63260;DHT22;49390;51.380;0.098;2022-08-01T10:53:20;24.90;99.90
63260;DHT22;49390;51.380;0.098;2022-08-01T10:58:35;25.00;99.90
63260;DHT22;49390;51.380;0.098;2022-08-01T11:04:04;25.20;99.90
63260;DHT22;49390;51.380;0.098;2022-08-01T11:11:59;25.10;99.90
63260;DHT22;49390;51.380;0.098;2022-08-01T11:14:34;25.20;99.90
63260;DHT22;49390;51.380;0.098;2022-08-01T11:20:30;25.10;99.50
63260;DHT22;49390;51.380;0.098;2022-08-01T11:28:26;25.10;99.20
63260;DHT22;49390;51.380;0.098;2022-08-01T11:41:29;25.70;94.90
63260;DHT22;49390;51.380;0.098;2022-08-01T11:44:05;25.50;95.00
63260;DHT22;49390;51.380;0.098;2022-08-01T11:54:34;25.20;95.60
63260;DHT22;49390;51.380;0.098;2022-08-01T11:57:12;25.00;96.40
63260;DHT22;49390;51.380;0.098;2022-08-01T11:59:49;24.80;97.40
63260;DHT22;49390;51.380;0.098;2022-08-01T12:02:39;24.80;98.20
63260;DHT22;49390;51.380;0.098;2022-08-01T12:05:10;24.70;98.60
63260;DHT22;49390;51.380;0.098;2022-08-01T12:07:44;24.60;99.10
63260;DHT22;49390;51.380;0.098;2022-08-01T12:10:16;24.60;99.60
63260;DHT22;49390;51.380;0.098;2022-08-01T12:12:50;24.60;99.50
63260;DHT22;49390;51.380;0.098;2022-08-01T12:15:21;24.60;99.90
63260;DHT22;49390;51.380;0.098;2022-08-01T12:17:56;24.70;99.90
63260;DHT22;49390;51.380;0.098;2022-08-01T12:23:03;24.90;99.90
63260;DHT22;49390;51.380;0.098;2022-08-01T12:25:36;25.00;99.90
63260;DHT22;49390;51.380;0.098;2022-08-01T12:28:07;25.20;99.90
63260;DHT22;49390;51.380;0.098;2022-08-01T12:30:37;25.60;99.50
63260;DHT22;49390;51.380;0.098;2022-08-01T12:33:09;25.90;98.30
63260;DHT22;49390;51.380;0.098;2022-08-01T12:35:40;26.20;97.40
63260;DHT22;49390;51.380;0.098;2022-08-01T12:38:16;26.40;96.60
63260;DHT22;49390;51.380;0.098;2022-08-01T12:40:47;26.60;95.10
63260;DHT22;49390;51.380;0.098;2022-08-01T12:43:22;26.70;94.20
63260;DHT22;49390;51.380;0.098;2022-08-01T12:45:57;26.70;94.00
63260;DHT22;49390;51.380;0.098;2022-08-01T12:48:28;26.60;94.30
63260;DHT22;49390;51.380;0.098;2022-08-01T12:50:58;26.40;94.60
63260;DHT22;49390;51.380;0.098;2022-08-01T12:53:33;26.30;95.70
63260;DHT22;49390;51.380;0.098;2022-08-01T12:56:09;26.20;96.90
63260;DHT22;49390;51.380;0.098;2022-08-01T12:58:39;26.10;97.70
63260;DHT22;49390;51.380;0.098;2022-08-01T13:01:10;26.20;98.00
63260;DHT22;49390;51.380;0.098;2022-08-01T13:03:40;26.20;97.90
63260;DHT22;49390;51.380;0.098;2022-08-01T13:06:15;26.30;97.10
63260;DHT22;49390;51.380;0.098;2022-08-01T13:08:45;26.70;96.00
63260;DHT22;49390;51.380;0.098;2022-08-01T13:11:14;27.00;94.70
63260;DHT22;49390;51.380;0.098;2022-08-01T13:13:51;27.30;92.30
63260;DHT22;49390;51.380;0.098;2022-08-01T13:16:25;27.50;90.40
63260;DHT22;49390;51.380;0.098;2022-08-01T13:19:14;27.60;89.10
63260;DHT22;49390;51.380;0.098;2022-08-01T13:22:02;27.50;89.90
63260;DHT22;49390;51.380;0.098;2022-08-01T13:24:32;27.40;90.50
63260;DHT22;49390;51.380;0.098;2022-08-01T13:27:04;27.60;90.80
63260;DHT22;49390;51.380;0.098;2022-08-01T13:29:38;27.80;90.20
63260;DHT22;49390;51.380;0.098;2022-08-01T13:32:20;27.90;87.70
63260;DHT22;49390;51.380;0.098;2022-08-01T13:35:06;28.20;83.60
63260;DHT22;49390;51.380;0.098;2022-08-01T13:37:36;28.30;78.70
63260;DHT22;49390;51.380;0.098;2022-08-01T13:40:07;28.40;76.20
63260;DHT22;49390;51.380;0.098;2022-08-01T13:42:36;28.30;75.60
63260;DHT22;49390;51.380;0.098;2022-08-01T13:45:05;28.10;76.50
63260;DHT22;49390;51.380;0.098;2022-08-01T13:49:56;27.80;79.40
63260;DHT22;49390;51.380;0.098;2022-08-01T13:52:29;27.80;78.10
63260;DHT22;49390;51.380;0.098;2022-08-01T13:54:57;27.80;77.40
63260;DHT22;49390;51.380;0.098;2022-08-01T13:57:27;27.70;77.90
63260;DHT22;49390;51.380;0.098;2022-08-01T14:00:05;27.60;78.30
63260;DHT22;49390;51.380;0.098;2022-08-01T14:02:38;27.50;79.40
63260;DHT22;49390;51.380;0.098;2022-08-01T14:05:07;27.40;79.40
63260;DHT22;49390;51.380;0.098;2022-08-01T14:07:35;27.40;79.30
63260;DHT22;49390;51.380;0.098;2022-08-01T14:10:05;27.50;78.40
63260;DHT22;49390;51.380;0.098;2022-08-01T14:12:48;27.60;77.30
63260;DHT22;49390;51.380;0.098;2022-08-01T14:15:24;27.70;77.00
63260;DHT22;49390;51.380;0.098;2022-08-01T14:18:08;27.60;77.10
63260;DHT22;49390;51.380;0.098;2022-08-01T14:20:41;27.50;78.70
63260;DHT22;49390;51.380;0.098;2022-08-01T14:23:10;27.40;78.80
63260;DHT22;49390;51.380;0.098;2022-08-01T14:25:41;27.40;77.80
63260;DHT22;49390;51.380;0.098;2022-08-01T14:28:31;27.40;77.70
63260;DHT22;49390;51.380;0.098;2022-08-01T14:31:00;27.40;77.50
63260;DHT22;49390;51.380;0.098;2022-08-01T14:33:29;27.40;77.20
63260;DHT22;49390;51.380;0.098;2022-08-01T14:36:01;27.50;76.80
63260;DHT22;49390;51.380;0.098;2022-08-01T14:38:49;27.60;75.30
63260;DHT22;49390;51.380;0.098;2022-08-01T14:41:17;27.80;73.10
63260;DHT22;49390;51.380;0.098;2022-08-01T14:43:44;27.90;72.20
63260;DHT22;49390;51.380;0.098;2022-08-01T14:46:14;27.90;70.70
63260;DHT22;49390;51.380;0.098;2022-08-01T14:48:42;27.90;70.20
63260;DHT22;49390;51.380;0.098;2022-08-01T14:51:11;27.90;70.60
63260;DHT22;49390;51.380;0.098;2022-08-01T14:53:39;28.00;70.80
63260;DHT22;49390;51.380;0.098;2022-08-01T14:56:17;28.00;70.20
63260;DHT22;49390;51.380;0.098;2022-08-01T14:58:47;28.00;70.00
63260;DHT22;49390;51.380;0.098;2022-08-01T15:01:16;28.10;70.30
63260;DHT22;49390;51.380;0.098;2022-08-01T15:03:46;28.10;69.80
63260;DHT22;49390;51.380;0.098;2022-08-01T15:06:15;28.20;69.30
63260;DHT22;49390;51.380;0.098;2022-08-01T15:08:44;28.20;69.50
63260;DHT22;49390;51.380;0.098;2022-08-01T15:11:12;28.30;69.50
63260;DHT22;49390;51.380;0.098;2022-08-01T15:13:41;28.40;68.80
63260;DHT22;49390;51.380;0.098;2022-08-01T15:16:10;28.40;68.20
63260;DHT22;49390;51.380;0.098;2022-08-01T15:18:39;28.40;68.30
63260;DHT22;49390;51.380;0.098;2022-08-01T15:21:10;28.40;67.80
63260;DHT22;49390;51.380;0.098;2022-08-01T15:23:59;28.30;68.20
63260;DHT22;49390;51.380;0.098;2022-08-01T15:26:27;28.20;69.20
63260;DHT22;49390;51.380;0.098;2022-08-01T15:28:57;28.00;70.80
63260;DHT22;49390;51.380;0.098;2022-08-01T15:31:25;27.90;72.40
63260;DHT22;49390;51.380;0.098;2022-08-01T15:45:25;27.70;73.30
63260;DHT22;49390;51.380;0.098;2022-08-01T15:48:17;27.80;75.20
63260;DHT22;49390;51.380;0.098;2022-08-01T15:50:47;27.80;75.50
63260;DHT22;49390;51.380;0.098;2022-08-01T15:53:15;27.90;74.70
63260;DHT22;49390;51.380;0.098;2022-08-01T15:55:46;27.80;73.80
63260;DHT22;49390;51.380;0.098;2022-08-01T15:58:20;27.70;74.00
63260;DHT22;49390;51.380;0.098;2022-08-01T16:00:48;27.60;74.90
63260;DHT22;49390;51.380;0.098;2022-08-01T16:03:16;27.50;77.40
63260;DHT22;49390;51.380;0.098;2022-08-01T16:05:45;27.40;79.90
63260;DHT22;49390;51.380;0.098;2022-08-01T16:08:13;27.30;82.10
63260;DHT22;49390;51.380;0.098;2022-08-01T16:10:41;27.20;83.40
63260;DHT22;49390;51.380;0.098;2022-08-01T16:13:11;27.10;84.50
63260;DHT22;49390;51.380;0.098;2022-08-01T16:15:39;27.10;84.90
63260;DHT22;49390;51.380;0.098;2022-08-01T16:18:09;27.00;84.70
63260;DHT22;49390;51.380;0.098;2022-08-01T16:20:40;26.90;84.60
63260;DHT22;49390;51.380;0.098;2022-08-01T16:23:13;27.00;85.30
63260;DHT22;49390;51.380;0.098;2022-08-01T16:25:42;27.10;86.00
63260;DHT22;49390;51.380;0.098;2022-08-01T16:28:12;27.20;85.50
63260;DHT22;49390;51.380;0.098;2022-08-01T16:30:41;27.40;84.50
63260;DHT22;49390;51.380;0.098;2022-08-01T16:33:30;27.60;82.00
63260;DHT22;49390;51.380;0.098;2022-08-01T16:36:20;27.80;79.40
63260;DHT22;49390;51.380;0.098;2022-08-01T16:38:51;28.00;76.50
63260;DHT22;49390;51.380;0.098;2022-08-01T16:43:33;28.20;73.10
63260;DHT22;49390;51.380;0.098;2022-08-01T16:46:02;28.20;73.70
63260;DHT22;49390;51.380;0.098;2022-08-01T16:48:31;28.20;73.70
63260;DHT22;49390;51.380;0.098;2022-08-01T16:51:00;27.90;75.80
63260;DHT22;49390;51.380;0.098;2022-08-01T16:53:28;27.80;78.10
63260;DHT22;49390;51.380;0.098;2022-08-01T16:55:57;27.60;82.00
63260;DHT22;49390;51.380;0.098;2022-08-01T16:58:26;27.40;86.10
63260;DHT22;49390;51.380;0.098;2022-08-01T17:00:55;27.30;87.30
63260;DHT22;49390;51.380;0.098;2022-08-01T17:03:44;27.10;87.90
63260;DHT22;49390;51.380;0.098;2022-08-01T17:06:19;26.90;90.10
63260;DHT22;49390;51.380;0.098;2022-08-01T17:08:49;26.80;91.80
63260;DHT22;49390;51.380;0.098;2022-08-01T17:11:17;26.60;93.50
63260;DHT22;49390;51.380;0.098;2022-08-01T17:13:45;26.50;94.70
63260;DHT22;49390;51.380;0.098;2022-08-01T17:16:14;26.50;95.70
63260;DHT22;49390;51.380;0.098;2022-08-01T17:18:42;26.50;96.40
63260;DHT22;49390;51.380;0.098;2022-08-01T17:21:10;26.60;96.90
63260;DHT22;49390;51.380;0.098;2022-08-01T17:23:38;26.60;97.20
63260;DHT22;49390;51.380;0.098;2022-08-01T17:27:12;26.60;97.10